createdAt,value
2019-04-01T00:01:26.525Z,1.17
2019-04-01T00:03:53.528Z,0.97
2019-04-01T00:06:20.491Z,0.90
2019-04-01T00:08:47.450Z,0.97
2019-04-01T00:11:14.394Z,1.80
2019-04-01T00:13:41.342Z,1.00
2019-04-01T00:16:08.341Z,0.90
2019-04-01T00:18:35.308Z,0.90
2019-04-01T00:21:02.267Z,1.80
2019-04-01T00:23:29.215Z,1.00
2019-04-01T00:25:56.184Z,1.90
2019-04-01T00:28:23.133Z,0.90
2019-04-01T00:30:50.123Z,1.10
2019-04-01T00:33:17.224Z,1.10
2019-04-01T00:35:44.194Z,1.00
2019-04-01T00:38:11.297Z,1.40
2019-04-01T00:40:38.262Z,1.10
2019-04-01T00:43:45.041Z,1.20
2019-04-01T00:46:13.841Z,0.93
2019-04-01T00:48:40.779Z,1.10
2019-04-01T00:51:08.642Z,1.50
2019-04-01T00:53:35.583Z,0.83
2019-04-01T00:56:03.091Z,1.07
2019-04-01T00:58:30.601Z,1.43
2019-04-01T01:00:58.165Z,1.27
2019-04-01T01:03:25.111Z,2.57
2019-04-01T01:05:52.079Z,1.10
2019-04-01T01:08:19.587Z,0.80
2019-04-01T01:10:46.561Z,1.10
2019-04-01T01:13:13.510Z,1.00
2019-04-01T01:15:40.542Z,1.07
2019-04-01T01:18:07.605Z,1.80
2019-04-01T01:20:34.596Z,1.33
2019-04-01T01:23:01.924Z,0.97
2019-04-01T01:25:28.925Z,1.47
2019-04-01T01:27:55.852Z,0.97
2019-04-01T01:30:22.903Z,1.20
2019-04-01T01:32:49.827Z,0.90
2019-04-01T01:35:17.420Z,1.83
2019-04-01T01:37:44.522Z,1.63
2019-04-01T01:40:11.899Z,0.87
2019-04-01T01:42:39.035Z,1.37
2019-04-01T01:45:06.126Z,1.30
2019-04-01T01:47:33.098Z,0.90
2019-04-01T01:50:00.099Z,0.90
2019-04-01T01:52:27.232Z,1.00
2019-04-01T01:54:54.235Z,1.20
2019-04-01T01:57:21.315Z,1.50
2019-04-01T01:59:49.660Z,1.30
2019-04-01T02:02:16.620Z,1.90
2019-04-01T02:04:43.566Z,1.23
2019-04-01T02:07:10.550Z,1.23
2019-04-01T02:09:37.491Z,1.40
2019-04-01T02:12:04.901Z,1.30
2019-04-01T02:14:31.865Z,0.77
2019-04-01T02:16:58.830Z,1.37
2019-04-01T02:19:25.775Z,1.13
2019-04-01T02:21:52.737Z,1.73
2019-04-01T02:24:19.689Z,1.50
2019-04-01T02:26:46.675Z,1.97
2019-04-01T02:29:13.638Z,1.07
2019-04-01T02:31:42.387Z,1.20
2019-04-01T02:34:09.332Z,1.60
2019-04-01T02:36:36.326Z,0.93
2019-04-01T02:39:06.563Z,1.53
2019-04-01T02:41:33.526Z,1.40
2019-04-01T02:44:00.475Z,1.17
2019-04-01T02:46:27.476Z,1.20
2019-04-01T02:48:57.420Z,0.80
2019-04-01T02:51:24.440Z,1.20
2019-04-01T02:53:51.375Z,1.60
2019-04-01T02:56:18.334Z,1.70
2019-04-01T02:58:45.324Z,1.90
2019-04-01T03:01:12.507Z,1.50
2019-04-01T03:03:39.511Z,1.57
2019-04-01T03:06:06.531Z,1.20
2019-04-01T03:08:33.516Z,1.33
2019-04-01T03:11:01.132Z,1.10
2019-04-01T03:13:28.075Z,1.40
2019-04-01T03:15:56.893Z,1.20
2019-04-01T03:18:23.850Z,1.27
2019-04-01T03:20:50.938Z,0.90
2019-04-01T03:23:17.942Z,1.03
2019-04-01T03:25:44.925Z,1.37
2019-04-01T03:28:11.913Z,1.10
2019-04-01T03:30:38.930Z,2.20
2019-04-01T03:33:05.904Z,1.30
2019-04-01T03:35:32.852Z,1.40
2019-04-01T03:38:00.024Z,3.70
2019-04-01T03:40:27.060Z,3.73
2019-04-01T03:42:54.233Z,5.90
2019-04-01T03:45:21.205Z,6.07
2019-04-01T03:47:48.194Z,6.30
2019-04-01T03:50:15.165Z,5.90
2019-04-01T03:52:42.349Z,3.57
2019-04-01T03:55:09.296Z,3.63
2019-04-01T03:57:36.303Z,2.53
2019-04-01T04:00:04.292Z,1.97
2019-04-01T04:02:31.298Z,2.07
2019-04-01T04:04:58.480Z,1.30
2019-04-01T04:07:25.471Z,1.67
2019-04-01T04:09:52.449Z,1.10
2019-04-01T04:12:19.414Z,1.30
2019-04-01T04:14:50.898Z,1.30
2019-04-01T04:17:15.247Z,1.60
2019-04-01T04:19:42.201Z,1.53
2019-04-01T04:22:09.156Z,1.10
2019-04-01T04:24:36.146Z,1.50
2019-04-01T04:27:03.133Z,1.70
2019-04-01T04:29:30.178Z,1.40
2019-04-01T04:31:57.183Z,1.87
2019-04-01T04:34:24.168Z,1.30
2019-04-01T04:36:51.273Z,1.03
2019-04-01T04:39:18.187Z,0.97
2019-04-01T04:41:45.163Z,1.33
2019-04-01T04:44:12.093Z,1.00
2019-04-01T04:46:39.072Z,1.30
2019-04-01T04:49:06.057Z,1.33
2019-04-01T04:51:33.091Z,2.07
2019-04-01T04:54:00.097Z,1.20
2019-04-01T04:56:27.051Z,1.17
2019-04-01T04:58:54.097Z,2.00
2019-04-01T05:01:22.660Z,2.40
2019-04-01T05:03:50.752Z,1.97
2019-04-01T05:06:17.705Z,3.27
2019-04-01T05:08:44.884Z,4.00
2019-04-01T05:11:11.853Z,3.27
2019-04-01T05:13:38.867Z,2.03
2019-04-01T05:16:05.814Z,2.17
2019-04-01T05:18:32.804Z,1.87
2019-04-01T05:21:00.351Z,2.00
2019-04-01T05:23:28.016Z,1.90
2019-04-01T05:25:54.946Z,2.33
2019-04-01T05:28:23.003Z,2.40
2019-04-01T05:30:52.128Z,1.60
2019-04-01T05:33:21.106Z,1.60
2019-04-01T05:35:48.095Z,1.63
2019-04-01T05:38:16.073Z,1.37
2019-04-01T05:40:43.339Z,1.00
2019-04-01T05:43:10.438Z,1.27
2019-04-01T05:45:37.393Z,1.43
2019-04-01T05:48:04.393Z,1.50
2019-04-01T05:50:31.455Z,1.60
2019-04-01T05:52:58.464Z,0.93
2019-04-01T05:55:25.524Z,0.87
2019-04-01T05:57:52.886Z,1.60
2019-04-01T06:00:26.792Z,1.53
2019-04-01T06:02:54.030Z,2.97
2019-04-01T06:05:21.028Z,2.20
2019-04-01T06:07:48.262Z,1.57
2019-04-01T06:10:16.992Z,1.07
2019-04-01T06:12:44.899Z,1.43
2019-04-01T06:15:11.838Z,1.47
2019-04-01T06:17:38.844Z,1.37
2019-04-01T06:20:06.216Z,1.57
2019-04-01T06:22:33.161Z,2.10
2019-04-01T06:25:00.333Z,1.73
2019-04-01T06:27:28.103Z,1.43
2019-04-01T06:29:55.529Z,1.13
2019-04-01T06:32:22.882Z,1.50
2019-04-01T06:34:52.926Z,1.53
2019-04-01T06:37:18.726Z,2.00
2019-04-01T06:39:45.752Z,1.43
2019-04-01T06:42:12.705Z,1.40
2019-04-01T06:44:39.698Z,1.43
2019-04-01T06:47:06.650Z,1.50
2019-04-01T06:49:33.766Z,2.00
2019-04-01T06:52:00.839Z,3.03
2019-04-01T06:54:27.960Z,1.60
2019-04-01T06:56:54.942Z,2.10
2019-04-01T06:59:21.964Z,1.47
2019-04-01T07:01:48.937Z,1.10
2019-04-01T07:04:16.115Z,1.20
2019-04-01T07:06:43.292Z,1.30
2019-04-01T07:09:10.294Z,1.13
2019-04-01T07:11:38.621Z,1.40
2019-04-01T07:14:05.731Z,1.30
2019-04-01T07:16:32.812Z,1.67
2019-04-01T07:18:59.999Z,1.37
2019-04-01T07:21:26.965Z,1.33
2019-04-01T07:23:54.055Z,1.93
2019-04-01T07:26:21.042Z,1.80
2019-04-01T07:28:48.014Z,1.63
2019-04-01T07:31:15.285Z,1.90
2019-04-01T07:33:42.672Z,1.67
2019-04-01T07:36:09.655Z,1.60
2019-04-01T07:38:37.000Z,1.23
2019-04-01T07:41:04.198Z,1.60
2019-04-01T07:43:31.187Z,1.60
2019-04-01T07:46:00.022Z,1.30
2019-04-01T07:48:27.071Z,1.83
2019-04-01T07:50:54.135Z,2.17
2019-04-01T07:53:21.171Z,1.70
2019-04-01T07:55:48.482Z,1.00
2019-04-01T07:58:15.454Z,2.00
2019-04-01T08:00:42.752Z,1.90
2019-04-01T08:03:09.690Z,1.60
2019-04-01T08:05:36.775Z,1.80
2019-04-01T08:08:04.260Z,1.77
2019-04-01T08:10:31.255Z,1.60
2019-04-01T08:12:58.482Z,1.80
2019-04-01T08:15:25.578Z,1.50
2019-04-01T08:17:52.684Z,1.53
2019-04-01T08:20:19.648Z,2.00
2019-04-01T08:22:46.916Z,1.40
2019-04-01T08:25:13.928Z,3.27
2019-04-01T08:27:40.877Z,2.20
2019-04-01T08:30:09.225Z,1.80
2019-04-01T08:32:36.175Z,1.60
2019-04-01T08:35:04.135Z,2.10
2019-04-01T08:37:31.322Z,2.30
2019-04-01T08:39:58.315Z,1.77
2019-04-01T08:42:25.260Z,2.00
2019-04-01T08:44:52.252Z,1.60
2019-04-01T08:47:19.217Z,2.43
2019-04-01T08:49:46.211Z,2.30
2019-04-01T08:52:13.267Z,1.37
2019-04-01T08:54:40.449Z,1.97
2019-04-01T08:57:07.384Z,1.60
2019-04-01T08:59:34.996Z,1.53
2019-04-01T09:02:16.732Z,1.90
2019-04-01T09:04:31.767Z,1.67
2019-04-01T09:06:58.738Z,1.27
2019-04-01T09:09:26.628Z,1.73
2019-04-01T09:11:54.438Z,2.10
2019-04-01T09:14:22.444Z,1.53
2019-04-01T09:16:49.422Z,1.70
2019-04-01T09:19:16.419Z,1.80
2019-04-01T09:21:43.418Z,1.43
2019-04-01T09:24:10.381Z,1.70
2019-04-01T09:26:37.406Z,1.97
2019-04-01T09:29:05.505Z,1.60
2019-04-01T09:31:32.492Z,1.43
2019-04-01T09:33:59.447Z,1.43
2019-04-01T09:36:26.440Z,1.90
2019-04-01T09:38:53.420Z,1.60
2019-04-01T09:41:20.384Z,1.40
2019-04-01T09:43:47.325Z,1.47
2019-04-01T09:46:14.305Z,1.80
2019-04-01T09:48:41.444Z,1.60
2019-04-01T09:51:09.329Z,2.00
2019-04-01T09:53:36.616Z,1.60
2019-04-01T09:56:03.629Z,1.90
2019-04-01T09:58:30.640Z,1.90
2019-04-01T10:00:57.643Z,1.30
2019-04-01T10:03:24.612Z,2.17
2019-04-01T10:05:51.672Z,1.57
2019-04-01T10:08:18.629Z,1.10
2019-04-01T10:10:45.639Z,1.40
2019-04-01T10:13:12.602Z,1.70
2019-04-01T10:15:39.639Z,1.80
2019-04-01T10:18:06.613Z,2.00
2019-04-01T10:20:33.573Z,1.40
2019-04-01T10:23:00.533Z,1.30
2019-04-01T10:25:27.507Z,2.23
2019-04-01T10:27:54.464Z,2.43
2019-04-01T10:30:21.827Z,1.67
2019-04-01T10:32:48.799Z,1.57
2019-04-01T10:35:18.804Z,1.77
2019-04-01T10:37:45.837Z,1.57
2019-04-01T10:40:13.322Z,1.77
2019-04-01T10:42:40.324Z,1.50
2019-04-01T10:45:08.722Z,1.40
2019-04-01T10:47:35.737Z,1.43
2019-04-01T10:50:05.233Z,2.00
2019-04-01T10:52:32.353Z,1.77
2019-04-01T10:54:59.376Z,2.57
2019-04-01T10:57:26.458Z,1.80
2019-04-01T10:59:53.456Z,2.03
2019-04-01T11:02:20.528Z,1.80
2019-04-01T11:04:49.449Z,1.70
2019-04-01T11:07:16.685Z,1.90
2019-04-01T11:09:43.853Z,2.50
2019-04-01T11:12:10.886Z,2.03
2019-04-01T11:14:37.859Z,1.60
2019-04-01T11:17:04.837Z,1.90
2019-04-01T11:19:31.795Z,2.00
2019-04-01T11:21:58.908Z,2.33
2019-04-01T11:24:26.063Z,2.20
2019-04-01T11:26:53.166Z,2.37
2019-04-01T11:29:20.198Z,2.17
2019-04-01T11:31:47.183Z,1.70
2019-04-01T11:34:14.165Z,1.63
2019-04-01T11:36:41.387Z,2.07
2019-04-01T11:39:11.031Z,1.80
2019-04-01T11:41:38.062Z,1.70
2019-04-01T11:44:05.029Z,2.10
2019-04-01T11:46:31.984Z,2.50
2019-04-01T11:48:58.985Z,2.20
2019-04-01T11:51:32.446Z,1.90
2019-04-01T11:53:54.845Z,1.77
2019-04-01T11:56:21.809Z,2.57
2019-04-01T11:58:48.835Z,1.93
2019-04-01T12:01:15.794Z,1.80
2019-04-01T12:03:42.925Z,2.07
2019-04-01T12:06:09.908Z,1.57
2019-04-01T12:08:36.955Z,2.63
2019-04-01T12:11:03.955Z,2.43
2019-04-01T12:13:31.069Z,1.63
2019-04-01T12:15:58.426Z,3.00
2019-04-01T12:18:25.446Z,2.20
2019-04-01T12:20:52.396Z,2.57
2019-04-01T12:23:19.481Z,2.30
2019-04-01T12:25:46.575Z,2.00
2019-04-01T12:28:14.244Z,2.20
2019-04-01T12:30:41.486Z,2.20
2019-04-01T12:33:08.466Z,1.97
2019-04-01T12:35:36.557Z,2.40
2019-04-01T12:38:04.147Z,2.07
2019-04-01T12:40:31.097Z,2.50
2019-04-01T12:42:58.093Z,2.10
2019-04-01T12:45:25.685Z,2.57
2019-04-01T12:47:52.725Z,2.23
2019-04-01T12:50:19.780Z,3.30
2019-04-01T12:52:47.080Z,2.63
2019-04-01T12:55:14.465Z,2.30
2019-04-01T12:57:41.490Z,2.47
2019-04-01T13:00:10.502Z,2.23
2019-04-01T13:02:37.511Z,3.00
2019-04-01T13:05:04.770Z,2.53
2019-04-01T13:07:32.870Z,2.73
2019-04-01T13:09:59.824Z,2.57
2019-04-01T13:12:27.447Z,2.63
2019-04-01T13:14:55.697Z,2.67
2019-04-01T13:17:22.753Z,2.93
2019-04-01T13:19:49.739Z,2.53
2019-04-01T13:22:16.685Z,2.60
2019-04-01T13:24:43.688Z,2.60
2019-04-01T13:27:10.639Z,2.70
2019-04-01T13:29:37.665Z,3.03
2019-04-01T13:32:04.621Z,3.20
2019-04-01T13:34:31.631Z,2.50
2019-04-01T13:36:58.607Z,2.63
2019-04-01T13:39:25.631Z,2.80
2019-04-01T13:41:56.062Z,2.90
2019-04-01T13:44:35.679Z,2.70
2019-04-01T13:46:50.733Z,2.90
2019-04-01T13:49:18.189Z,2.90
2019-04-01T13:51:45.172Z,3.43
2019-04-01T13:54:14.438Z,2.97
2019-04-01T13:56:42.945Z,2.93
2019-04-01T13:59:12.354Z,3.03
2019-04-01T14:01:39.189Z,3.33
2019-04-01T14:04:06.404Z,3.53
2019-04-01T14:06:33.441Z,4.43
2019-04-01T14:09:00.743Z,2.73
2019-04-01T14:11:27.937Z,2.53
2019-04-01T14:13:54.984Z,2.40
2019-04-01T14:16:21.929Z,3.77
2019-04-01T14:18:48.953Z,2.60
2019-04-01T14:21:20.523Z,3.17
2019-04-01T14:23:44.883Z,2.50
2019-04-01T14:26:12.255Z,3.10
2019-04-01T14:28:39.505Z,2.80
2019-04-01T14:31:06.461Z,2.80
2019-04-01T14:33:34.599Z,2.90
2019-04-01T14:36:01.793Z,3.30
2019-04-01T14:38:28.806Z,3.13
2019-04-01T14:40:58.107Z,2.80
2019-04-01T14:43:24.715Z,3.57
2019-04-01T14:45:51.900Z,2.83
2019-04-01T14:48:18.849Z,2.90
2019-04-01T14:50:45.858Z,3.10
2019-04-01T14:53:12.800Z,3.67
2019-04-01T14:55:39.772Z,3.27
2019-04-01T14:58:06.767Z,3.30
2019-04-01T15:00:33.756Z,2.40
2019-04-01T15:03:00.748Z,2.80
2019-04-01T15:05:27.750Z,3.00
2019-04-01T15:07:54.893Z,4.10
2019-04-01T15:10:21.901Z,2.80
2019-04-01T15:13:04.104Z,2.20
2019-04-01T15:15:17.745Z,3.43
2019-04-01T15:17:44.695Z,3.50
2019-04-01T15:20:12.475Z,3.83
2019-04-01T15:22:39.421Z,3.53
2019-04-01T15:25:06.637Z,2.90
2019-04-01T15:27:33.911Z,2.80
2019-04-01T15:30:01.006Z,3.77
2019-04-01T15:32:27.959Z,3.20
2019-04-01T15:34:54.984Z,3.13
2019-04-01T15:37:23.061Z,2.63
2019-04-01T15:39:50.220Z,3.40
2019-04-01T15:42:17.185Z,3.17
2019-04-01T15:44:44.169Z,3.10
2019-04-01T15:47:11.222Z,2.87
2019-04-01T15:49:38.229Z,3.10
2019-04-01T15:52:05.723Z,2.70
2019-04-01T15:54:33.292Z,2.90
2019-04-01T15:57:00.264Z,2.63
2019-04-01T15:59:27.241Z,2.20
2019-04-01T16:01:54.225Z,2.40
2019-04-01T16:04:21.426Z,2.37
2019-04-01T16:06:48.414Z,2.30
2019-04-01T16:09:15.367Z,2.93
2019-04-01T16:11:42.352Z,1.93
2019-04-01T16:14:09.323Z,2.60
2019-04-01T16:16:36.638Z,2.70
2019-04-01T16:19:03.718Z,3.63
2019-04-01T16:21:31.501Z,2.50
2019-04-01T16:23:58.872Z,2.97
2019-04-01T16:26:25.865Z,2.27
2019-04-01T16:28:52.811Z,3.10
2019-04-01T16:31:19.826Z,4.10
2019-04-01T16:33:46.791Z,2.30
2019-04-01T16:36:15.190Z,2.10
2019-04-01T16:38:42.156Z,2.80
2019-04-01T16:41:09.167Z,3.03
2019-04-01T16:43:38.181Z,2.53
2019-04-01T16:46:04.981Z,3.60
2019-04-01T16:48:31.946Z,3.17
2019-04-01T16:50:58.927Z,2.90
2019-04-01T16:53:25.885Z,2.90
2019-04-01T16:55:52.965Z,2.47
2019-04-01T16:58:19.972Z,2.90
2019-04-01T17:00:46.952Z,2.93
2019-04-01T17:03:14.077Z,2.67
2019-04-01T17:05:41.114Z,3.00
2019-04-01T17:08:10.333Z,2.37
2019-04-01T17:10:37.617Z,2.67
2019-04-01T17:13:06.892Z,3.07
2019-04-01T17:15:33.864Z,3.10
2019-04-01T17:18:00.938Z,3.20
2019-04-01T17:20:27.934Z,2.40
2019-04-01T17:22:54.891Z,2.50
2019-04-01T17:25:21.822Z,2.57
2019-04-01T17:27:48.808Z,2.77
2019-04-01T17:30:15.768Z,2.40
2019-04-01T17:32:42.750Z,2.70
2019-04-01T17:35:09.922Z,3.03
2019-04-01T17:37:37.995Z,3.43
2019-04-01T17:40:07.703Z,2.80
2019-04-01T17:42:34.680Z,2.60
2019-04-01T17:45:08.417Z,3.07
2019-04-01T17:47:35.717Z,2.87
2019-04-01T17:50:03.685Z,2.90
2019-04-01T17:52:30.654Z,2.30
2019-04-01T17:54:59.425Z,2.90
2019-04-01T17:57:26.478Z,2.50
2019-04-01T17:59:53.414Z,3.13
2019-04-01T18:02:26.687Z,3.27
2019-04-01T18:04:53.679Z,3.17
2019-04-01T18:07:20.661Z,3.03
2019-04-01T18:09:47.614Z,3.10
2019-04-01T18:12:14.576Z,3.07
2019-04-01T18:14:41.530Z,2.60
2019-04-01T18:17:08.497Z,2.93
2019-04-01T18:19:36.230Z,3.50
2019-04-01T18:22:03.557Z,2.70
2019-04-01T18:24:30.499Z,2.93
2019-04-01T18:26:57.488Z,3.00
2019-04-01T18:29:24.442Z,3.23
2019-04-01T18:31:51.418Z,3.13
2019-04-01T18:34:18.365Z,2.80
2019-04-01T18:36:45.366Z,3.50
2019-04-01T18:39:12.321Z,4.10
2019-04-01T18:41:39.293Z,4.40
2019-04-01T18:44:06.247Z,5.90
2019-04-01T18:46:34.514Z,6.20
2019-04-01T18:49:01.472Z,6.37
2019-04-01T18:51:28.434Z,6.50
2019-04-01T18:53:55.481Z,6.37
2019-04-01T18:56:22.436Z,5.10
2019-04-01T18:58:49.580Z,4.50
2019-04-01T19:01:16.533Z,3.57
2019-04-01T19:03:43.535Z,3.63
2019-04-01T19:06:10.719Z,3.37
2019-04-01T19:08:37.704Z,3.50
2019-04-01T19:11:04.671Z,3.33
2019-04-01T19:13:31.685Z,4.07
2019-04-01T19:15:59.995Z,3.33
2019-04-01T19:18:27.622Z,3.83
2019-04-01T19:20:56.418Z,3.57
2019-04-01T19:23:23.499Z,4.07
2019-04-01T19:25:50.506Z,3.73
2019-04-01T19:28:18.481Z,3.93
2019-04-01T19:30:45.728Z,3.87
2019-04-01T19:33:12.900Z,3.10
2019-04-01T19:35:39.891Z,3.10
2019-04-01T19:38:07.472Z,3.47
2019-04-01T19:40:34.537Z,4.50
2019-04-01T19:43:03.577Z,4.37
2019-04-01T19:45:30.878Z,4.00
2019-04-01T19:47:57.864Z,4.47
2019-04-01T19:50:25.221Z,3.93
2019-04-01T19:52:52.352Z,3.80
2019-04-01T19:55:19.746Z,3.53
2019-04-01T19:57:46.766Z,3.70
2019-04-01T20:00:27.061Z,3.20
2019-04-01T20:02:43.339Z,3.40
2019-04-01T20:05:10.606Z,4.10
2019-04-01T20:07:37.587Z,3.60
2019-04-01T20:10:05.072Z,4.13
2019-04-01T20:12:32.023Z,3.93
2019-04-01T20:14:59.106Z,3.90
2019-04-01T20:17:26.941Z,3.60
2019-04-01T20:19:54.873Z,3.87
2019-04-01T20:22:21.931Z,3.97
2019-04-01T20:24:49.609Z,3.70
2019-04-01T20:27:20.495Z,3.37
2019-04-01T20:29:46.544Z,4.50
2019-04-01T20:32:17.448Z,4.40
2019-04-01T20:34:56.078Z,4.23
2019-04-01T20:37:11.923Z,3.93
2019-04-01T20:39:38.929Z,4.07
2019-04-01T20:42:07.385Z,4.40
2019-04-01T20:44:34.344Z,3.70
2019-04-01T20:47:01.303Z,4.07
2019-04-01T20:49:28.282Z,3.90
2019-04-01T20:51:55.240Z,4.77
2019-04-01T20:54:22.323Z,4.60
2019-04-01T20:56:49.397Z,4.87
2019-04-01T20:59:16.547Z,4.70
2019-04-01T21:01:43.485Z,5.70
2019-04-01T21:04:10.469Z,5.00
2019-04-01T21:06:37.427Z,5.83
2019-04-01T21:09:07.163Z,5.30
2019-04-01T21:11:34.160Z,5.80
2019-04-01T21:14:01.330Z,5.00
2019-04-01T21:16:29.480Z,6.10
2019-04-01T21:18:56.467Z,5.23
2019-04-01T21:21:23.429Z,5.80
2019-04-01T21:23:50.407Z,5.40
2019-04-01T21:26:17.374Z,6.00
2019-04-01T21:28:44.383Z,7.00
2019-04-01T21:31:11.338Z,4.70
2019-04-01T21:33:38.349Z,5.30
2019-04-01T21:36:06.795Z,5.07
2019-04-01T21:38:33.945Z,5.30
2019-04-01T21:41:02.363Z,5.00
2019-04-01T21:43:29.315Z,4.73
2019-04-01T21:45:56.405Z,4.90
2019-04-01T21:48:25.170Z,5.07
2019-04-01T21:50:52.170Z,4.40
2019-04-01T21:53:19.183Z,4.57
2019-04-01T21:55:46.160Z,5.03
2019-04-01T21:58:13.121Z,4.23
2019-04-01T22:00:49.007Z,3.40
2019-04-01T22:03:16.124Z,3.90
2019-04-01T22:05:43.452Z,3.77
2019-04-01T22:08:10.872Z,4.70
2019-04-01T22:10:37.867Z,4.27
2019-04-01T22:13:04.816Z,3.17
2019-04-01T22:15:31.793Z,3.80
2019-04-01T22:17:58.784Z,3.93
2019-04-01T22:20:26.241Z,4.83
2019-04-01T22:22:53.216Z,4.73
2019-04-01T22:25:20.209Z,3.77
2019-04-01T22:27:47.145Z,4.40
2019-04-01T22:30:14.314Z,4.20
2019-04-01T22:32:42.111Z,3.53
2019-04-01T22:35:11.239Z,4.30
2019-04-01T22:37:38.231Z,4.27
2019-04-01T22:40:05.845Z,3.77
2019-04-01T22:42:32.807Z,4.10
2019-04-01T22:45:00.017Z,4.20
2019-04-01T22:47:26.968Z,3.93
2019-04-01T22:49:54.208Z,4.07
2019-04-01T22:52:21.230Z,3.93
2019-04-01T22:54:48.225Z,4.73
2019-04-01T22:57:15.330Z,4.20
2019-04-01T22:59:42.366Z,4.17
2019-04-01T23:02:09.873Z,3.50
2019-04-01T23:04:37.142Z,4.33
2019-04-01T23:07:05.321Z,5.13
2019-04-01T23:09:32.443Z,4.03
2019-04-01T23:11:59.499Z,3.90
2019-04-01T23:14:26.580Z,4.70
2019-04-01T23:16:53.557Z,4.10
2019-04-01T23:19:20.503Z,4.30
2019-04-01T23:21:47.502Z,4.23
2019-04-01T23:24:14.447Z,4.43
2019-04-01T23:26:41.439Z,4.27
2019-04-01T23:29:08.443Z,4.43
2019-04-01T23:31:38.493Z,3.60
2019-04-01T23:34:05.603Z,4.60
2019-04-01T23:36:33.000Z,5.30
2019-04-01T23:39:01.161Z,4.80
2019-04-01T23:41:28.139Z,5.57
2019-04-01T23:43:55.452Z,4.23
2019-04-01T23:46:22.472Z,5.43
2019-04-01T23:48:49.424Z,5.30
2019-04-01T23:51:16.667Z,5.23
2019-04-01T23:53:43.615Z,5.43
2019-04-01T23:56:10.600Z,5.30
2019-04-01T23:58:37.562Z,5.00
